AirNav   TITAN Aviation Fuels
 
 497 users online  

I40 Richard Downing Airport
Coshocton, Ohio, USA

GOING TO COSHOCTON?


FAA INFORMATION EFFECTIVE 15 JULY 2021

Location

FAA Identifier: I40
Lat/Long: 40-18-36.6000N 081-51-08.7000W
40-18.610000N 081-51.145000W
40.3101667,-81.8524167
(estimated)
Elevation: 978.9 ft. / 298.4 m (surveyed)
Variation: 07W (2000)
From city: 3 miles N of COSHOCTON, OH
Time zone: UTC -4 (UTC -5 during Standard Time)
Zip code: 43812

Airport Operations

Airport use: Open to the public
Control tower: no
ARTCC: INDIANAPOLIS CENTER
FSS: CLEVELAND FLIGHT SERVICE STATION
NOTAMs facility: CLE (NOTAM-D service available)
Attendance: 0900-1700
EXCLDG MAJOR HOLS.
FOR SER AFT HRS SEE SIGN IN FBO VESTIBULE FOR CTC INFO.
Wind indicator: yes
Segmented circle: no
Lights: ACTVT REIL RWY 22; MIRL RWY 04/22 - 122.9. PAPI RWY 04 & 22 OPR CONSLY.
Beacon: white-green (lighted land airport)
Operates sunset to sunrise.

Airport Communications

CTAF/UNICOM: 123.0
WX AWOS-3: 118.875 (740-295-7370)
WX AWOS-3 at 10G (14 nm N): 128.325 (330-674-6279)
  • APCH/DEP SVC PRVDD BY INDIANAPOLIS ARTCC ON FREQS 124.45/370.9 (ZANESVILLE RCAG).

Nearby radio navigation aids

VOR radial/distance  VOR name  Freq  Var
ZZVr011/22.2ZANESVILLE VOR/DME114.9506W
BSVr221/32.2BRIGGS VOR/DME112.4004W
APEr080/35.0APPLETON VORTAC116.7006W

 
NDB name  Hdg/Dist  Freq  Var  ID
CADIZ284/38.723907WCFX -.-. ..-. -..-

Airport Services

Fuel available: 100LL JET-A+
Parking: hangars and tiedowns
Airframe service: MAJOR
Powerplant service: MAJOR
Bottled oxygen: NONE
Bulk oxygen: NONE

Runway Information

Runway 4/22

Dimensions: 5001 x 75 ft. / 1524 x 23 m
Surface: asphalt, in fair condition
OPN, UNSEALED JOINTS.
Weight bearing capacity: 
Single wheel: 30.0
Double wheel: 35.0
Runway edge lights: medium intensity
Runway edge markings: NOT VSB.
RUNWAY 4  RUNWAY 22
Latitude: 40-18.282397N40-18.936983N
Longitude: 081-51.470680W081-50.817750W
Elevation: 973.1 ft.978.6 ft.
Traffic pattern: leftleft
Runway heading: 044 magnetic, 037 true224 magnetic, 217 true
Markings: nonprecision, in poor conditionnonprecision, in poor condition
Visual slope indicator: 2-light PAPI on left (3.50 degrees glide path)4-light PAPI on right (3.00 degrees glide path)
UNUSBL BYD 8 DEGS L OF CRS.
Runway end identifier lights: noyes
Touchdown point: yes, no lightsyes, no lights
Obstructions: 135 ft. trees, 2553 ft. from runway, 17:1 slope to clear
+14 TO +18 FT BRUSH, 200 FT DIST EXTDG TO THR, 105 L.
24 ft. trees, 392 ft. from runway, 142 ft. left of centerline, 8:1 slope to clear
+16 TO +18 FT TREES & BRUSH, 200 FT DIST EXTDG TO 100 FT FM THR, 200 FT L.

Airport Ownership and Management from official FAA records

Ownership: Publicly-owned
Owner: COSHOCTON CO RGNL ARPT AUTH
24569 AIRPORT RD
COSHOCTON, OH 43812-9219
Phone 740-622-2252
Manager: MARTY DOBSON
24569 AIRPORT RD
COSHOCTON, OH 43812-9219
Phone 740-622-2252
MARTYDOBSON@COSHOCTONCOUNTY.NET.

Airport Operational Statistics

Aircraft based on the field: 19
Single engine airplanes: 16
Multi engine airplanes: 3
    
Aircraft operations: avg 53/day *
77% local general aviation
22% transient general aviation
1% air taxi
<1% military
* for 12-month period ending 16 July 2020

Additional Remarks

DEER, BIRDS, & OTR WILDLIFE ON & INVOF ARPT.
GCO 121.725 INDIANAPOLIS CENTER.
FOR CD IF UNA VIA GCO CTC INDIANAPOLIS ARTCC AT 317-247-2411.

Instrument Procedures

NOTE: All procedures below are presented as PDF files. If you need a reader for these files, you should download the free Adobe Reader.

NOT FOR NAVIGATION. Please procure official charts for flight.
FAA instrument procedures published for use from 15 July 2021 at 0901Z to 12 August 2021 at 0900z.

 
IAPs - Instrument Approach Procedures
RNAV (GPS) RWY 04   download (241KB)
RNAV (GPS) RWY 22   download (238KB)
NOTE: Special Take-Off Minimums/Departure Procedures apply   download (242KB)

Other nearby airports with instrument procedures:

10G - Holmes County Airport (14 nm N)
KPHD - Harry Clever Field Airport (22 nm NE)
KZZV - Zanesville Municipal Airport (22 nm S)
KCDI - Cambridge Municipal Airport (24 nm SE)
4I3 - Knox County Airport (31 nm W)
 
Loc | Ops | Rwys | IFR | FBO | Links
Com | Nav | Svcs | Stats | Notes
Area around I40 (Richard Downing Airport)
 
Road maps at: MapQuest Bing Google
 
Aerial photo
WARNING: Photo may not be current or correct
Aerial photo of I40 (Richard Downing Airport)
Photo courtesy of AirNav, LLC
Photo taken 09-May-2010

Do you have a better or more recent aerial photo of Richard Downing Airport that you would like to share? If so, please send us your photo.

 
Sectional chart

 
Airport distance calculator
Flying to Richard Downing Airport? Find the distance to fly.

From to I40

Sunrise and sunset
Times for 05-Aug-2021
 Local
(UTC-4)
 Zulu
(UTC)
Morning civil twilight06:0010:00
Sunrise06:3010:30
Sunset20:3700:37
Evening civil twilight21:0701:07

Current date and time
Zulu (UTC)  05-Aug-2021 08:17:40
Local (UTC-4)  05-Aug-2021 04:17:40
 
METAR
KZZV 
22nm S 
050753Z AUTO 00000KT 10SM CLR 16/14 A3010 RMK AO2 SLP188 T01610139
KPHD 
22nm NE 
050753Z AUTO 00000KT 10SM CLR 14/14 A3012 RMK AO2 SLP194 T01440139
KCDI 
24nm SE 
050755Z AUTO 00000KT 7SM SCT110 14/13 A3011 RMK AO2 T01380134
K4I3 
31nm W 
050755Z AUTO 35004KT 10SM CLR 17/12 A3014 RMK AO2
KVTA 
33nm SW 
050754Z AUTO 00000KT 10SM OVC085 17/14 A3011 RMK AO2 SLP188 T01670139
KBJJ 
33nm N 
050756Z AUTO 33003KT 10SM CLR 12/11 A3013 RMK AO2 SLP197 T01170106
KCAK 
41nm NE 
050751Z 04004KT 10SM CLR 16/12 A3012 RMK AO2 SLP191 T01610122 $
KMFD 
43nm NW 
050752Z AUTO 00000KT 10SM CLR 15/13 A3013 RMK AO2 SLP197 T01500128 $
TAF
KZZV 
22nm S 
050532Z 0506/0606 00000KT P6SM SCT100
NOTAMs
Click for the latest NOTAMs
NOTAMs are issued by the DoD/FAA and will open in a separate window not controlled by AirNav.

 

 
 

FBO, Fuel Providers, and Aircraft Ground Support

  
 Business Name 
 
 Contact 
 
 Services / Description 
 
Fuel Prices
 
Comments
  
 Richard Downing Airport
UNICOM 123.00
740-622-2252
[web site]
[email]
We have one of the most lowest priced 100LL and JetA/Prist Fuel available. 100LL fuel discount for Cash.
 
EPIC Card   Courtesy car   Courtesy transportation   Wireless Internet Access (WiFi)  
 
More info about Richard Downing Airport
EPIC
100LL Jet A
FS $4.41 $3.30 
GUARANTEED
 
   5 read write
FS=Full service
Update Fuel Prices
 

Where to Eat: Catering, Restaurants, Food shops

  
 Business Name 
 
 Contact 
 
 Services / Description 
 
Distance
 
Comments
  
 Adams Runway Grill
740-622-2252 Restaurant

More info about Adams Runway Grill
on airport  
   write
 

Would you like to see your business listed on this page?

 If your business provides an interesting product or service to pilots, flight crews, aircraft, or users of the Richard Downing Airport, you should consider listing it here.  To start the listing process, click on the button below
 
Add a business
 

Other Pages about Richard Downing Airport

www.coshoctoncountyairport.com
 
Update a link
 
Copyright © AirNav, LLC. All rights reserved. Privacy Policy  Contact